createdAt,value
2019-05-17T00:02:07.094Z,34.10
2019-05-17T00:04:58.994Z,34.30
2019-05-17T00:07:50.922Z,34.80
2019-05-17T00:10:43.324Z,35.30
2019-05-17T00:13:35.457Z,35.40
2019-05-17T00:16:27.338Z,35.50
2019-05-17T00:19:19.289Z,35.80
2019-05-17T00:22:10.780Z,35.90
2019-05-17T00:25:07.398Z,36.50
2019-05-17T00:27:58.862Z,36.40
2019-05-17T00:30:51.138Z,36.80
2019-05-17T00:33:43.827Z,37.40
2019-05-17T00:36:37.541Z,37.10
2019-05-17T00:39:28.853Z,37.30
2019-05-17T00:42:20.854Z,37.40
2019-05-17T00:45:13.058Z,37.60
2019-05-17T00:48:06.494Z,37.80
2019-05-17T00:51:02.101Z,37.60
2019-05-17T00:53:51.584Z,38.10
2019-05-17T00:56:46.281Z,38.40
2019-05-17T00:59:37.854Z,38.60
2019-05-17T01:02:29.720Z,38.80
2019-05-17T01:05:21.502Z,38.90
2019-05-17T01:08:13.449Z,39.10
2019-05-17T01:11:07.123Z,39.20
2019-05-17T01:14:00.415Z,39.20
2019-05-17T01:16:52.431Z,39.40
2019-05-17T01:19:47.009Z,39.80
2019-05-17T01:22:38.397Z,40.30
2019-05-17T01:25:30.328Z,40.40
2019-05-17T01:28:22.808Z,41.20
2019-05-17T01:31:17.560Z,41.60
2019-05-17T01:34:09.966Z,42.20
2019-05-17T01:37:02.733Z,42.70
2019-05-17T01:39:54.323Z,42.80
2019-05-17T01:42:46.671Z,43.00
2019-05-17T01:45:39.126Z,43.20
2019-05-17T01:48:31.403Z,43.30
2019-05-17T01:51:26.228Z,43.30
2019-05-17T01:54:17.608Z,43.30
2019-05-17T01:57:09.772Z,43.20
2019-05-17T02:00:01.797Z,43.20
2019-05-17T02:02:57.743Z,43.30
2019-05-17T02:05:51.565Z,43.30
2019-05-17T02:08:44.277Z,43.30
2019-05-17T02:11:37.421Z,43.40
2019-05-17T02:14:30.084Z,43.50
2019-05-17T02:17:22.343Z,43.50
2019-05-17T02:20:17.051Z,43.40
2019-05-17T02:23:09.345Z,43.20
2019-05-17T02:26:01.407Z,43.20
2019-05-17T02:28:56.161Z,43.30
2019-05-17T02:31:52.443Z,43.30
2019-05-17T02:34:44.273Z,43.40
2019-05-17T02:37:37.063Z,43.70
2019-05-17T02:40:33.528Z,43.40
2019-05-17T02:43:25.344Z,43.40
2019-05-17T02:46:18.368Z,43.30
2019-05-17T02:49:13.718Z,43.20
2019-05-17T02:52:05.165Z,43.30
2019-05-17T02:54:59.032Z,43.30
2019-05-17T02:57:52.966Z,43.40
2019-05-17T03:00:44.891Z,43.30
2019-05-17T03:03:37.974Z,43.40
2019-05-17T03:06:32.579Z,43.20
2019-05-17T03:09:23.375Z,43.10
2019-05-17T03:12:16.696Z,43.00
2019-05-17T03:15:12.857Z,43.10
2019-05-17T03:18:04.144Z,43.10
2019-05-17T03:20:57.949Z,43.10
2019-05-17T03:23:53.971Z,43.30
2019-05-17T03:26:48.238Z,43.10
2019-05-17T03:29:42.498Z,43.10
2019-05-17T03:32:37.057Z,43.00
2019-05-17T03:35:36.673Z,43.30
2019-05-17T03:38:23.578Z,43.20
2019-05-17T03:44:47.955Z,43.40
2019-05-17T03:47:44.520Z,43.20
2019-05-17T03:50:36.419Z,43.30
2019-05-17T03:53:33.122Z,43.10
2019-05-17T03:56:25.899Z,43.00
2019-05-17T03:59:19.185Z,43.30
2019-05-17T04:02:12.435Z,43.10
2019-05-17T04:05:05.553Z,43.20
2019-05-17T04:07:58.137Z,43.20
2019-05-17T04:10:52.706Z,43.00
2019-05-17T04:13:44.036Z,43.20
2019-05-17T04:16:38.327Z,43.40
2019-05-17T04:19:33.772Z,43.20
2019-05-17T04:22:27.223Z,43.20
2019-05-17T04:25:23.466Z,42.90
2019-05-17T04:28:14.272Z,42.80
2019-05-17T04:31:06.429Z,42.80
2019-05-17T04:34:02.847Z,42.40
2019-05-17T04:36:54.028Z,42.50
2019-05-17T04:39:47.110Z,42.40
2019-05-17T04:42:43.522Z,42.10
2019-05-17T04:45:33.906Z,42.00
2019-05-17T04:48:27.696Z,41.90
2019-05-17T04:51:23.013Z,41.10
2019-05-17T04:54:18.150Z,41.50
2019-05-17T04:57:13.059Z,41.40
2019-05-17T05:00:05.500Z,41.00
2019-05-17T05:02:57.291Z,40.00
2019-05-17T05:05:53.184Z,39.20
2019-05-17T05:16:55.370Z,39.00
2019-05-17T05:23:28.996Z,39.10
2019-05-17T05:31:13.106Z,39.00
2019-05-17T05:48:38.199Z,40.00
2019-05-17T05:58:59.547Z,39.30
2019-05-17T06:01:53.351Z,39.10
2019-05-17T06:04:51.860Z,39.40
2019-05-17T06:07:49.075Z,39.40
2019-05-17T06:10:42.603Z,39.50
2019-05-17T06:13:36.355Z,39.20
2019-05-17T06:16:42.455Z,38.80
2019-05-17T06:19:36.457Z,38.50
2019-05-17T06:22:33.497Z,38.60
2019-05-17T06:25:26.766Z,38.30
2019-05-17T06:28:22.146Z,38.80
2019-05-17T06:31:17.735Z,38.70
2019-05-17T06:34:16.412Z,38.40
2019-05-17T06:37:12.948Z,38.30
2019-05-17T06:40:07.235Z,38.00
2019-05-17T06:42:59.515Z,38.20
2019-05-17T06:45:54.486Z,38.20
2019-05-17T06:48:48.075Z,38.30
2019-05-17T06:51:42.389Z,38.30
2019-05-17T06:54:34.646Z,38.20
2019-05-17T06:57:32.384Z,37.90
2019-05-17T07:00:26.106Z,37.80
2019-05-17T07:03:21.957Z,37.70
2019-05-17T07:06:16.393Z,37.70
2019-05-17T07:09:10.068Z,38.40
2019-05-17T07:12:15.628Z,39.10
2019-05-17T07:15:15.283Z,39.20
2019-05-17T07:18:10.455Z,39.60
2019-05-17T07:21:06.210Z,39.40
2019-05-17T07:24:04.629Z,39.60
2019-05-17T07:27:04.915Z,39.70
2019-05-17T07:30:00.854Z,39.80
2019-05-17T07:33:03.921Z,39.80
2019-05-17T07:36:16.177Z,39.90
2019-05-17T07:45:42.076Z,39.70
2019-05-17T07:49:02.719Z,39.60
2019-05-17T07:52:01.873Z,39.90
2019-05-17T07:55:22.501Z,39.90
2019-05-17T07:58:21.131Z,40.80
2019-05-17T08:01:20.424Z,40.20
2019-05-17T08:04:13.525Z,40.60
2019-05-17T08:07:19.675Z,39.00
2019-05-17T08:10:13.821Z,39.00
2019-05-17T08:13:22.838Z,39.10
2019-05-17T08:16:14.936Z,38.90
2019-05-17T08:19:00.304Z,39.00
2019-05-17T08:21:54.649Z,38.70
2019-05-17T08:24:49.389Z,38.30
2019-05-17T08:27:42.103Z,38.10
2019-05-17T08:30:34.231Z,38.00
2019-05-17T08:33:29.539Z,37.90
2019-05-17T08:36:22.161Z,37.80
2019-05-17T08:39:15.971Z,38.20
2019-05-17T08:42:09.836Z,38.10
2019-05-17T08:45:04.958Z,38.10
2019-05-17T08:48:00.194Z,38.00
2019-05-17T08:50:52.562Z,37.80
2019-05-17T08:53:44.879Z,37.70
2019-05-17T08:56:37.112Z,37.50
2019-05-17T08:59:30.576Z,37.50
2019-05-17T09:02:22.883Z,37.40
2019-05-17T09:05:21.383Z,37.90
2019-05-17T09:08:14.910Z,37.70
2019-05-17T09:11:10.933Z,37.00
2019-05-17T09:14:04.188Z,37.10
2019-05-17T09:17:00.466Z,37.50
2019-05-17T09:19:54.447Z,37.00
2019-05-17T09:22:47.274Z,36.90
2019-05-17T09:25:40.452Z,37.10
2019-05-17T09:28:34.877Z,37.10
2019-05-17T09:31:29.876Z,37.10
2019-05-17T09:34:32.926Z,37.20
2019-05-17T09:37:31.412Z,37.20
2019-05-17T09:40:25.851Z,37.00
2019-05-17T09:43:23.394Z,36.90
2019-05-17T09:46:22.566Z,36.90
2019-05-17T09:49:19.163Z,36.60
2019-05-17T09:52:20.054Z,36.60
2019-05-17T09:55:19.616Z,36.30
2019-05-17T09:58:12.553Z,36.50
2019-05-17T10:01:06.360Z,36.60
2019-05-17T10:04:00.202Z,36.70
2019-05-17T10:07:01.075Z,36.10
2019-05-17T10:09:56.509Z,35.80
2019-05-17T10:12:50.418Z,35.90
2019-05-17T10:15:44.327Z,36.20
2019-05-17T10:18:36.708Z,36.60
2019-05-17T10:21:30.389Z,36.90
2019-05-17T10:24:34.910Z,37.00
2019-05-17T10:27:19.633Z,37.20
2019-05-17T10:30:14.414Z,37.30
2019-05-17T10:33:09.697Z,37.40
2019-05-17T10:36:01.462Z,37.50
2019-05-17T10:38:54.802Z,37.60
2019-05-17T10:41:50.045Z,37.70
2019-05-17T10:44:47.563Z,37.70
2019-05-17T10:47:40.624Z,37.80
2019-05-17T10:50:34.742Z,37.80
2019-05-17T10:53:29.578Z,37.80
2019-05-17T10:56:23.746Z,37.80
2019-05-17T10:59:15.694Z,37.80
2019-05-17T11:02:10.437Z,38.00
2019-05-17T11:05:05.049Z,38.10
2019-05-17T11:07:59.887Z,38.10
2019-05-17T11:10:53.905Z,38.00
2019-05-17T11:13:53.033Z,38.10
2019-05-17T11:16:51.232Z,38.10
2019-05-17T11:19:48.080Z,38.10
2019-05-17T11:22:42.583Z,38.10
2019-05-17T11:25:36.570Z,38.00
2019-05-17T11:28:32.559Z,38.00
2019-05-17T11:31:25.362Z,38.10
2019-05-17T11:34:18.581Z,38.00
2019-05-17T11:37:15.512Z,38.00
2019-05-17T11:40:10.709Z,38.20
2019-05-17T11:43:10.080Z,38.20
2019-05-17T11:46:11.657Z,38.20
2019-05-17T11:49:18.442Z,38.10
2019-05-17T11:52:11.172Z,38.10
2019-05-17T11:55:07.841Z,38.00
2019-05-17T11:58:00.934Z,38.00
2019-05-17T12:00:53.417Z,37.90
2019-05-17T12:03:47.024Z,38.30
2019-05-17T12:06:44.453Z,38.10
2019-05-17T12:09:42.044Z,35.90
2019-05-17T12:12:36.378Z,34.60
2019-05-17T12:15:44.530Z,33.70
2019-05-17T12:18:28.405Z,33.20
2019-05-17T12:21:23.237Z,32.90
2019-05-17T12:24:18.016Z,32.60
2019-05-17T12:27:14.954Z,32.80
2019-05-17T12:30:10.408Z,32.70
2019-05-17T12:33:06.518Z,32.40
2019-05-17T12:35:59.555Z,32.30
2019-05-17T12:38:54.231Z,32.50
2019-05-17T12:41:47.842Z,33.30
2019-05-17T12:44:41.604Z,33.40
2019-05-17T12:47:34.243Z,34.00
2019-05-17T12:50:28.348Z,33.80
2019-05-17T12:53:21.175Z,33.80
2019-05-17T12:56:13.860Z,34.00
2019-05-17T12:59:06.066Z,34.10
